sensor_id;sensor_type;location;lat;lon;timestamp;P1;durP1;ratioP1;P2;durP2;ratioP2
39698;SDS011;25372;50.582;12.250;2024-02-26T00:01:12;6.97;;;2.73;;
39698;SDS011;25372;50.582;12.250;2024-02-26T00:11:35;14.45;;;5.95;;
39698;SDS011;25372;50.582;12.250;2024-02-26T00:21:56;19.20;;;7.90;;
39698;SDS011;25372;50.582;12.250;2024-02-26T00:32:18;11.32;;;7.43;;
39698;SDS011;25372;50.582;12.250;2024-02-26T00:42:39;10.18;;;5.80;;
39698;SDS011;25372;50.582;12.250;2024-02-26T00:53:06;16.92;;;7.22;;
39698;SDS011;25372;50.582;12.250;2024-02-26T01:03:28;9.67;;;4.27;;
39698;SDS011;25372;50.582;12.250;2024-02-26T01:13:51;14.50;;;7.13;;
39698;SDS011;25372;50.582;12.250;2024-02-26T01:24:15;10.25;;;6.28;;
39698;SDS011;25372;50.582;12.250;2024-02-26T01:34:38;15.32;;;6.75;;
39698;SDS011;25372;50.582;12.250;2024-02-26T01:44:59;17.60;;;7.32;;
39698;SDS011;25372;50.582;12.250;2024-02-26T01:55:22;16.10;;;7.70;;
39698;SDS011;25372;50.582;12.250;2024-02-26T02:05:44;9.32;;;5.15;;
39698;SDS011;25372;50.582;12.250;2024-02-26T02:16:07;19.60;;;6.95;;
39698;SDS011;25372;50.582;12.250;2024-02-26T02:26:29;10.35;;;5.38;;
39698;SDS011;25372;50.582;12.250;2024-02-26T02:36:51;15.40;;;5.25;;
39698;SDS011;25372;50.582;12.250;2024-02-26T02:47:14;9.75;;;5.57;;
39698;SDS011;25372;50.582;12.250;2024-02-26T02:57:35;11.10;;;4.97;;
39698;SDS011;25372;50.582;12.250;2024-02-26T03:08:02;12.35;;;4.93;;
39698;SDS011;25372;50.582;12.250;2024-02-26T03:18:23;14.47;;;6.13;;
39698;SDS011;25372;50.582;12.250;2024-02-26T03:28:45;7.30;;;4.10;;
39698;SDS011;25372;50.582;12.250;2024-02-26T03:39:06;13.57;;;6.45;;
39698;SDS011;25372;50.582;12.250;2024-02-26T03:49:30;10.57;;;5.97;;
39698;SDS011;25372;50.582;12.250;2024-02-26T03:59:51;10.77;;;5.53;;
39698;SDS011;25372;50.582;12.250;2024-02-26T04:10:13;13.57;;;5.85;;
39698;SDS011;25372;50.582;12.250;2024-02-26T04:20:34;14.65;;;5.35;;
39698;SDS011;25372;50.582;12.250;2024-02-26T04:30:57;6.82;;;4.63;;
39698;SDS011;25372;50.582;12.250;2024-02-26T04:41:18;11.80;;;5.80;;
39698;SDS011;25372;50.582;12.250;2024-02-26T04:51:40;8.05;;;4.82;;
39698;SDS011;25372;50.582;12.250;2024-02-26T05:02:01;6.25;;;3.40;;
39698;SDS011;25372;50.582;12.250;2024-02-26T05:12:23;5.30;;;3.90;;
39698;SDS011;25372;50.582;12.250;2024-02-26T05:22:44;10.82;;;4.72;;
39698;SDS011;25372;50.582;12.250;2024-02-26T05:33:08;6.38;;;3.50;;
39698;SDS011;25372;50.582;12.250;2024-02-26T05:43:29;9.45;;;4.53;;
39698;SDS011;25372;50.582;12.250;2024-02-26T05:53:51;6.15;;;4.43;;
39698;SDS011;25372;50.582;12.250;2024-02-26T06:04:14;10.18;;;4.50;;
39698;SDS011;25372;50.582;12.250;2024-02-26T06:14:38;6.82;;;3.63;;
39698;SDS011;25372;50.582;12.250;2024-02-26T06:24:59;10.77;;;5.43;;
39698;SDS011;25372;50.582;12.250;2024-02-26T06:35:21;12.85;;;5.10;;
39698;SDS011;25372;50.582;12.250;2024-02-26T06:45:42;8.55;;;4.15;;
39698;SDS011;25372;50.582;12.250;2024-02-26T06:56:05;10.70;;;5.35;;
39698;SDS011;25372;50.582;12.250;2024-02-26T07:06:26;11.40;;;5.30;;
39698;SDS011;25372;50.582;12.250;2024-02-26T07:16:49;11.45;;;5.65;;
39698;SDS011;25372;50.582;12.250;2024-02-26T07:27:10;10.60;;;3.70;;
39698;SDS011;25372;50.582;12.250;2024-02-26T07:37:32;7.28;;;4.07;;
39698;SDS011;25372;50.582;12.250;2024-02-26T07:47:54;10.10;;;4.78;;
39698;SDS011;25372;50.582;12.250;2024-02-26T07:58:16;10.23;;;4.15;;
39698;SDS011;25372;50.582;12.250;2024-02-26T08:08:37;6.57;;;3.78;;
39698;SDS011;25372;50.582;12.250;2024-02-26T08:18:59;12.73;;;4.88;;
39698;SDS011;25372;50.582;12.250;2024-02-26T08:29:20;10.30;;;4.15;;
39698;SDS011;25372;50.582;12.250;2024-02-26T08:39:43;8.05;;;4.55;;
39698;SDS011;25372;50.582;12.250;2024-02-26T08:50:06;8.97;;;4.30;;
39698;SDS011;25372;50.582;12.250;2024-02-26T09:00:30;10.10;;;4.30;;
39698;SDS011;25372;50.582;12.250;2024-02-26T09:10:51;8.63;;;4.93;;
39698;SDS011;25372;50.582;12.250;2024-02-26T09:21:14;10.35;;;4.43;;
39698;SDS011;25372;50.582;12.250;2024-02-26T09:31:38;11.95;;;4.88;;
39698;SDS011;25372;50.582;12.250;2024-02-26T09:42:02;12.40;;;5.15;;
39698;SDS011;25372;50.582;12.250;2024-02-26T09:52:26;11.68;;;4.35;;
39698;SDS011;25372;50.582;12.250;2024-02-26T10:02:52;7.90;;;4.15;;
39698;SDS011;25372;50.582;12.250;2024-02-26T10:13:16;7.30;;;3.60;;
39698;SDS011;25372;50.582;12.250;2024-02-26T10:23:40;5.38;;;3.53;;
39698;SDS011;25372;50.582;12.250;2024-02-26T10:34:02;8.00;;;3.67;;
39698;SDS011;25372;50.582;12.250;2024-02-26T10:44:25;7.97;;;3.42;;
39698;SDS011;25372;50.582;12.250;2024-02-26T10:54:46;9.23;;;3.80;;
39698;SDS011;25372;50.582;12.250;2024-02-26T11:05:09;7.03;;;3.47;;
39698;SDS011;25372;50.582;12.250;2024-02-26T11:15:32;9.90;;;4.60;;
39698;SDS011;25372;50.582;12.250;2024-02-26T11:25:55;11.00;;;4.07;;
39698;SDS011;25372;50.582;12.250;2024-02-26T11:36:19;8.95;;;5.00;;
39698;SDS011;25372;50.582;12.250;2024-02-26T11:46:42;9.27;;;4.00;;
39698;SDS011;25372;50.582;12.250;2024-02-26T11:57:04;6.65;;;2.97;;
39698;SDS011;25372;50.582;12.250;2024-02-26T12:07:42;11.80;;;4.43;;
39698;SDS011;25372;50.582;12.250;2024-02-26T12:18:06;11.35;;;3.65;;
39698;SDS011;25372;50.582;12.250;2024-02-26T12:28:31;7.87;;;3.13;;
39698;SDS011;25372;50.582;12.250;2024-02-26T12:38:52;5.10;;;3.28;;
39698;SDS011;25372;50.582;12.250;2024-02-26T12:49:15;7.18;;;3.53;;
39698;SDS011;25372;50.582;12.250;2024-02-26T12:59:37;10.40;;;3.83;;
39698;SDS011;25372;50.582;12.250;2024-02-26T13:10:00;9.75;;;3.67;;
39698;SDS011;25372;50.582;12.250;2024-02-26T13:20:25;8.43;;;4.05;;
39698;SDS011;25372;50.582;12.250;2024-02-26T13:30:52;7.68;;;3.55;;
39698;SDS011;25372;50.582;12.250;2024-02-26T13:41:16;9.15;;;3.63;;
39698;SDS011;25372;50.582;12.250;2024-02-26T13:51:38;7.88;;;3.90;;
39698;SDS011;25372;50.582;12.250;2024-02-26T14:02:00;6.10;;;3.38;;
39698;SDS011;25372;50.582;12.250;2024-02-26T14:12:22;3.33;;;2.47;;
39698;SDS011;25372;50.582;12.250;2024-02-26T14:22:43;6.75;;;2.75;;
39698;SDS011;25372;50.582;12.250;2024-02-26T14:33:05;4.85;;;2.58;;
39698;SDS011;25372;50.582;12.250;2024-02-26T14:43:27;4.95;;;3.22;;
39698;SDS011;25372;50.582;12.250;2024-02-26T14:53:49;8.63;;;3.70;;
39698;SDS011;25372;50.582;12.250;2024-02-26T15:04:10;6.88;;;3.17;;
39698;SDS011;25372;50.582;12.250;2024-02-26T15:14:32;6.78;;;3.47;;
39698;SDS011;25372;50.582;12.250;2024-02-26T15:24:54;8.05;;;2.72;;
39698;SDS011;25372;50.582;12.250;2024-02-26T15:35:17;9.07;;;4.35;;
39698;SDS011;25372;50.582;12.250;2024-02-26T15:45:38;6.13;;;2.75;;
39698;SDS011;25372;50.582;12.250;2024-02-26T15:56:00;6.15;;;2.88;;
39698;SDS011;25372;50.582;12.250;2024-02-26T16:06:22;6.43;;;3.35;;
39698;SDS011;25372;50.582;12.250;2024-02-26T16:16:51;5.80;;;3.13;;
39698;SDS011;25372;50.582;12.250;2024-02-26T16:27:17;6.10;;;3.28;;
39698;SDS011;25372;50.582;12.250;2024-02-26T16:37:39;8.20;;;3.80;;
39698;SDS011;25372;50.582;12.250;2024-02-26T16:48:00;5.90;;;3.72;;
39698;SDS011;25372;50.582;12.250;2024-02-26T16:58:24;6.13;;;4.45;;
39698;SDS011;25372;50.582;12.250;2024-02-26T17:08:45;11.15;;;5.10;;
39698;SDS011;25372;50.582;12.250;2024-02-26T17:19:07;8.18;;;3.97;;
39698;SDS011;25372;50.582;12.250;2024-02-26T17:29:28;8.43;;;4.22;;
39698;SDS011;25372;50.582;12.250;2024-02-26T17:39:51;17.38;;;6.68;;
39698;SDS011;25372;50.582;12.250;2024-02-26T17:50:13;16.85;;;6.57;;
39698;SDS011;25372;50.582;12.250;2024-02-26T18:00:35;12.40;;;6.63;;
39698;SDS011;25372;50.582;12.250;2024-02-26T18:10:56;12.40;;;6.13;;
39698;SDS011;25372;50.582;12.250;2024-02-26T18:21:20;16.50;;;5.72;;
39698;SDS011;25372;50.582;12.250;2024-02-26T18:31:41;15.70;;;7.07;;
39698;SDS011;25372;50.582;12.250;2024-02-26T18:42:04;13.50;;;6.90;;
39698;SDS011;25372;50.582;12.250;2024-02-26T18:52:26;14.80;;;5.87;;
39698;SDS011;25372;50.582;12.250;2024-02-26T19:02:49;14.80;;;6.25;;
39698;SDS011;25372;50.582;12.250;2024-02-26T19:13:10;13.68;;;5.68;;
39698;SDS011;25372;50.582;12.250;2024-02-26T19:23:32;23.02;;;8.27;;
39698;SDS011;25372;50.582;12.250;2024-02-26T19:33:56;12.57;;;7.15;;
39698;SDS011;25372;50.582;12.250;2024-02-26T19:44:19;12.65;;;6.43;;
39698;SDS011;25372;50.582;12.250;2024-02-26T19:54:40;17.20;;;7.70;;
39698;SDS011;25372;50.582;12.250;2024-02-26T20:05:03;13.30;;;6.72;;
39698;SDS011;25372;50.582;12.250;2024-02-26T20:15:25;11.20;;;6.03;;
39698;SDS011;25372;50.582;12.250;2024-02-26T20:25:47;12.07;;;5.35;;
39698;SDS011;25372;50.582;12.250;2024-02-26T20:36:08;10.20;;;5.95;;
39698;SDS011;25372;50.582;12.250;2024-02-26T20:46:31;16.63;;;6.22;;
39698;SDS011;25372;50.582;12.250;2024-02-26T20:56:52;14.10;;;7.20;;
39698;SDS011;25372;50.582;12.250;2024-02-26T21:07:15;17.65;;;7.10;;
39698;SDS011;25372;50.582;12.250;2024-02-26T21:17:37;13.18;;;6.15;;
39698;SDS011;25372;50.582;12.250;2024-02-26T21:27:59;14.90;;;7.57;;
39698;SDS011;25372;50.582;12.250;2024-02-26T21:38:21;13.90;;;6.43;;
39698;SDS011;25372;50.582;12.250;2024-02-26T21:48:44;15.48;;;5.18;;
39698;SDS011;25372;50.582;12.250;2024-02-26T21:59:05;15.90;;;6.72;;
39698;SDS011;25372;50.582;12.250;2024-02-26T22:09:28;15.18;;;5.07;;
39698;SDS011;25372;50.582;12.250;2024-02-26T22:19:49;15.10;;;6.82;;
39698;SDS011;25372;50.582;12.250;2024-02-26T22:30:12;9.63;;;5.45;;
39698;SDS011;25372;50.582;12.250;2024-02-26T22:40:33;14.95;;;6.78;;
39698;SDS011;25372;50.582;12.250;2024-02-26T22:50:56;17.85;;;6.85;;
39698;SDS011;25372;50.582;12.250;2024-02-26T23:01:17;17.15;;;7.65;;
39698;SDS011;25372;50.582;12.250;2024-02-26T23:11:40;10.43;;;6.80;;
39698;SDS011;25372;50.582;12.250;2024-02-26T23:22:01;14.52;;;7.38;;
39698;SDS011;25372;50.582;12.250;2024-02-26T23:32:23;19.70;;;6.57;;
39698;SDS011;25372;50.582;12.250;2024-02-26T23:42:44;24.10;;;7.95;;
39698;SDS011;25372;50.582;12.250;2024-02-26T23:53:07;18.83;;;7.07;;
